CheckWX is a tool to help pilots better visualize weather data.  It is not intended as a substitute for an official pre-flight weather briefing.

13:34:47 UTC

04W METAR
Field of Dreams Airport
Hinckley, Minnesota, USA
Current

19 mins ago

K04W 201316Z AUTO 00000KT 10SM CLR 07/03 A3014 RMK AO2
Observed
May-20 @ 13:16 UTC
Visibility
10 SM
Flight Rules
VFR
Cloud Levels
  • Clear skies
Temperature
C / 45°F
Dewpoint
C / 37°F
Humidity
76%
Altimeter
30.14" Hg
Pressure
1020.62 hPa
Previous

39 mins ago

K04W 201256Z AUTO 00000KT 10SM CLR 06/03 A3014 RMK AO2
Observed
May-20 @ 12:56 UTC
Visibility
10 SM
Flight Rules
VFR
Cloud Levels
  • Clear skies
Temperature
C / 43°F
Dewpoint
C / 37°F
Humidity
81%
Altimeter
30.14" Hg
Pressure
1020.62 hPa
Previous

60 mins ago

K04W 201235Z AUTO 32003KT 10SM CLR 06/03 A3013 RMK AO2
Observed
May-20 @ 12:35 UTC
Wind
  • 320° at 3 KTS
Visibility
10 SM
Flight Rules
VFR
Cloud Levels
  • Clear skies
Temperature
C / 43°F
Dewpoint
C / 37°F
Humidity
81%
Altimeter
30.13" Hg
Pressure
1020.32 hPa